Time;durP1;ratioP1;P1;durP2;ratioP2;P2;SDS_P1;SDS_P2;PMS_P1;PMS_P2;Temp;Humidity;BMP_temperature;BMP_pressure;BME280_temperature;BME280_humidity;BME280_pressure;Samples;Min_cycle;Max_cycle;Signal;HPM_P1;HPM_P2
2021/05/19 00:00:19;;;;;;;12.95;7.60;;;9.30;99.90;;;;;;5060786;28;20033;-65
2021/05/19 00:02:45;;;;;;;13.82;7.47;;;9.20;99.90;;;;;;5055327;28;20036;-65
2021/05/19 00:05:11;;;;;;;14.75;8.27;;;9.20;99.90;;;;;;5057938;28;20033;-66
2021/05/19 00:07:37;;;;;;;17.45;8.27;;;9.20;99.90;;;;;;5061974;28;20028;-65
2021/05/19 00:10:04;;;;;;;13.43;7.75;;;9.10;99.90;;;;;;5072080;28;20037;-65
2021/05/19 00:12:30;;;;;;;14.50;7.45;;;9.00;99.90;;;;;;5063553;28;20036;-65
2021/05/19 00:14:56;;;;;;;20.60;7.40;;;9.00;99.90;;;;;;5064469;28;20028;-65
2021/05/19 00:17:21;;;;;;;13.20;6.65;;;9.00;99.90;;;;;;5062327;28;20536;-65
2021/05/19 00:19:47;;;;;;;13.73;6.70;;;9.00;99.90;;;;;;5063428;28;20107;-65
2021/05/19 00:22:13;;;;;;;10.10;6.78;;;9.00;99.90;;;;;;5058545;28;20076;-65
2021/05/19 00:24:38;;;;;;;13.35;5.80;;;9.00;99.90;;;;;;5060782;28;20439;-65
2021/05/19 00:27:04;;;;;;;16.63;6.93;;;8.90;99.90;;;;;;5067887;28;20048;-65
2021/05/19 00:29:30;;;;;;;13.52;6.55;;;8.90;99.90;;;;;;5067717;28;20028;-65
2021/05/19 00:31:55;;;;;;;17.55;5.70;;;8.90;99.90;;;;;;5063050;28;20041;-67
2021/05/19 00:34:21;;;;;;;14.80;5.72;;;8.90;99.90;;;;;;5065460;28;20025;-65
2021/05/19 00:36:47;;;;;;;12.55;4.75;;;8.90;99.90;;;;;;5053368;28;20615;-65
2021/05/19 00:39:12;;;;;;;13.13;4.88;;;8.90;99.90;;;;;;5063635;28;20538;-64
2021/05/19 00:41:41;;;;;;;14.65;5.68;;;8.90;99.90;;;;;;5063470;28;20025;-64
2021/05/19 00:44:11;;;;;;;15.73;4.80;;;8.90;99.90;;;;;;5062710;28;20016;-65
2021/05/19 00:46:37;;;;;;;12.38;4.63;;;8.90;99.90;;;;;;5056096;28;20497;-65
2021/05/19 00:49:04;;;;;;;11.00;4.40;;;8.90;99.90;;;;;;5054755;28;20032;-65
2021/05/19 00:51:30;;;;;;;12.90;4.50;;;8.90;99.90;;;;;;5070764;28;20059;-65
2021/05/19 00:53:56;;;;;;;15.13;5.20;;;9.00;99.90;;;;;;5067235;28;20474;-65
2021/05/19 00:56:26;;;;;;;15.13;4.55;;;9.00;99.90;;;;;;5050514;28;20071;-65
2021/05/19 00:58:56;;;;;;;18.35;4.60;;;9.00;99.90;;;;;;5068513;28;20040;-65
2021/05/19 01:01:22;;;;;;;12.65;4.55;;;8.90;99.90;;;;;;5063059;28;20032;-66
2021/05/19 01:03:49;;;;;;;15.40;4.63;;;9.00;99.90;;;;;;5070647;28;20480;-65
2021/05/19 01:07:03;;;;;;;11.18;4.65;;;9.00;99.90;;;;;;5059694;28;20020;-64
2021/05/19 01:11:52;;;;;;;15.65;4.95;;;8.90;99.90;;;;;;5062617;28;20056;-64
2021/05/19 01:14:17;;;;;;;15.77;5.55;;;8.90;99.90;;;;;;5067343;28;20393;-64
2021/05/19 01:16:43;;;;;;;17.90;5.25;;;8.70;99.90;;;;;;5066690;28;20108;-65
2021/05/19 01:19:12;;;;;;;13.20;5.32;;;8.70;99.90;;;;;;5054609;28;20112;-65
2021/05/19 01:21:42;;;;;;;24.75;5.45;;;8.70;99.90;;;;;;5064439;28;20052;-66
2021/05/19 01:24:07;;;;;;;16.80;4.88;;;8.70;99.90;;;;;;5067421;28;20342;-64
2021/05/19 01:26:33;;;;;;;16.45;5.45;;;8.70;99.90;;;;;;5051640;28;20028;-65
2021/05/19 01:29:01;;;;;;;11.23;4.57;;;8.70;99.90;;;;;;5058693;28;20081;-65
2021/05/19 01:31:27;;;;;;;14.55;5.45;;;8.60;99.90;;;;;;5058667;28;20082;-65
2021/05/19 01:33:53;;;;;;;14.63;5.15;;;8.60;99.90;;;;;;5059225;28;20032;-65
2021/05/19 01:36:19;;;;;;;12.77;5.32;;;8.70;99.90;;;;;;5059116;28;20033;-65
2021/05/19 01:38:45;;;;;;;13.75;5.53;;;8.70;99.90;;;;;;5065667;28;20033;-65
2021/05/19 01:41:11;;;;;;;16.88;5.30;;;8.70;99.90;;;;;;5060443;28;20036;-65
2021/05/19 01:43:38;;;;;;;18.63;5.95;;;8.70;99.90;;;;;;5054635;28;20405;-65
2021/05/19 01:46:06;;;;;;;17.88;5.50;;;8.70;99.90;;;;;;5069699;28;20055;-65
2021/05/19 01:48:33;;;;;;;17.45;5.38;;;8.60;99.90;;;;;;5051203;28;20032;-65
2021/05/19 01:51:00;;;;;;;15.85;5.05;;;8.60;99.90;;;;;;5057239;28;20106;-65
2021/05/19 01:53:28;;;;;;;17.83;6.32;;;8.60;99.90;;;;;;5070295;28;20090;-65
2021/05/19 01:55:55;;;;;;;13.45;4.95;;;8.60;99.90;;;;;;5055286;28;20066;-65
2021/05/19 01:58:21;;;;;;;12.95;4.45;;;8.60;99.90;;;;;;5057593;28;20448;-69
2021/05/19 02:00:47;;;;;;;11.93;4.97;;;8.50;99.90;;;;;;5055227;28;20047;-68
2021/05/19 02:03:13;;;;;;;21.45;5.40;;;8.50;99.90;;;;;;5060577;28;20025;-65
2021/05/19 02:05:39;;;;;;;14.60;4.93;;;8.50;99.90;;;;;;5065991;28;20023;-65
2021/05/19 02:08:07;;;;;;;15.73;4.93;;;8.50;99.90;;;;;;5050852;28;20024;-65
2021/05/19 02:10:33;;;;;;;12.82;5.32;;;8.50;99.90;;;;;;5062235;28;20028;-65
2021/05/19 02:13:05;;;;;;;19.05;5.68;;;8.50;99.90;;;;;;5070207;28;20025;-65
2021/05/19 02:15:32;;;;;;;15.80;5.30;;;8.50;99.90;;;;;;5068402;28;20504;-65
2021/05/19 02:18:00;;;;;;;20.77;6.13;;;8.50;99.90;;;;;;5054542;28;20061;-65
2021/05/19 02:20:26;;;;;;;20.42;5.78;;;8.40;99.90;;;;;;5068405;28;20059;-65
2021/05/19 02:22:51;;;;;;;14.40;5.35;;;8.40;99.90;;;;;;5056612;28;20052;-65
2021/05/19 02:25:20;;;;;;;15.55;5.07;;;8.40;99.90;;;;;;5057128;28;20031;-65
2021/05/19 02:27:47;;;;;;;18.95;5.32;;;8.40;99.90;;;;;;5050704;28;20099;-65
2021/05/19 02:30:13;;;;;;;11.48;4.57;;;8.50;99.90;;;;;;5065422;28;20033;-65
2021/05/19 02:32:39;;;;;;;13.20;5.38;;;8.50;99.90;;;;;;5062120;28;20055;-65
2021/05/19 02:35:07;;;;;;;13.98;4.80;;;8.50;99.90;;;;;;5069794;28;20036;-65
2021/05/19 02:37:32;;;;;;;18.35;4.78;;;8.50;99.90;;;;;;5060531;28;20123;-65
2021/05/19 02:39:58;;;;;;;13.15;4.30;;;8.40;99.90;;;;;;5055015;28;20116;-66
2021/05/19 02:42:24;;;;;;;16.83;5.47;;;8.40;99.90;;;;;;5058863;28;20033;-65
2021/05/19 02:44:49;;;;;;;13.25;5.07;;;8.40;99.90;;;;;;5050440;28;20092;-65
2021/05/19 02:47:15;;;;;;;14.95;5.20;;;8.40;99.90;;;;;;5056844;28;20098;-65
2021/05/19 02:49:41;;;;;;;14.73;4.82;;;8.40;99.90;;;;;;5066378;28;20032;-65
2021/05/19 02:52:07;;;;;;;14.13;4.15;;;8.50;99.90;;;;;;5049051;28;20021;-65
2021/05/19 02:54:33;;;;;;;14.70;4.75;;;8.60;99.90;;;;;;5058239;28;20033;-66
2021/05/19 02:56:59;;;;;;;15.30;5.45;;;8.60;99.90;;;;;;5058700;28;20544;-65
2021/05/19 02:59:25;;;;;;;15.40;5.18;;;8.50;99.90;;;;;;5049554;28;20033;-66
2021/05/19 03:01:51;;;;;;;15.60;5.13;;;8.50;99.90;;;;;;5068676;28;20051;-66
2021/05/19 03:04:17;;;;;;;12.20;4.75;;;8.40;99.90;;;;;;5054396;28;20032;-66
2021/05/19 03:06:43;;;;;;;16.98;4.72;;;8.40;99.90;;;;;;5068719;28;20029;-66
2021/05/19 03:09:09;;;;;;;23.73;5.68;;;8.40;99.90;;;;;;5069991;28;20473;-66
2021/05/19 03:11:34;;;;;;;16.08;5.13;;;8.30;99.90;;;;;;5053161;28;20033;-67
2021/05/19 03:14:01;;;;;;;12.82;5.85;;;8.30;99.90;;;;;;5057676;28;20033;-66
2021/05/19 03:16:27;;;;;;;12.80;5.03;;;8.30;99.90;;;;;;5069909;28;20039;-66
2021/05/19 03:18:53;;;;;;;19.60;5.35;;;8.20;99.90;;;;;;5068855;28;20104;-66
2021/05/19 03:21:19;;;;;;;18.83;5.50;;;8.20;99.90;;;;;;5069169;28;20036;-66
2021/05/19 03:23:45;;;;;;;12.98;5.53;;;8.20;99.90;;;;;;5063434;28;20025;-65
2021/05/19 03:26:11;;;;;;;15.60;5.30;;;8.20;99.90;;;;;;5068057;28;20080;-66
2021/05/19 03:28:36;;;;;;;15.68;5.10;;;8.20;99.90;;;;;;5068745;28;20710;-66
2021/05/19 03:31:03;;;;;;;17.55;5.82;;;8.10;99.90;;;;;;5061010;28;20031;-66
2021/05/19 03:33:31;;;;;;;17.23;5.38;;;8.10;99.90;;;;;;5059892;28;20044;-66
2021/05/19 03:35:56;;;;;;;15.85;5.47;;;8.10;99.90;;;;;;5053604;28;20385;-66
2021/05/19 03:38:22;;;;;;;13.48;5.70;;;8.20;99.90;;;;;;5060356;28;20032;-66
2021/05/19 03:40:48;;;;;;;9.82;5.07;;;8.20;99.90;;;;;;5060079;28;20105;-66
2021/05/19 03:43:14;;;;;;;15.98;5.20;;;8.20;99.90;;;;;;5053631;28;20477;-66
2021/05/19 03:45:40;;;;;;;17.48;6.05;;;8.20;99.90;;;;;;5060182;28;20020;-66
2021/05/19 03:48:06;;;;;;;16.85;5.40;;;8.30;99.90;;;;;;5061285;28;20033;-66
2021/05/19 03:50:33;;;;;;;14.20;5.07;;;8.40;99.90;;;;;;5052176;28;20033;-66
2021/05/19 03:53:01;;;;;;;17.90;5.15;;;8.40;99.90;;;;;;5071713;28;20036;-66
2021/05/19 03:55:27;;;;;;;10.63;4.65;;;8.40;99.90;;;;;;5058657;28;20107;-66
2021/05/19 03:57:53;;;;;;;12.55;4.68;;;8.50;99.90;;;;;;5055004;28;20126;-66
2021/05/19 04:00:23;;;;;;;15.48;4.93;;;8.60;99.90;;;;;;5071073;28;20086;-66
2021/05/19 04:02:49;;;;;;;16.42;4.88;;;8.60;99.90;;;;;;5063418;28;20048;-66
2021/05/19 04:05:24;;;;;;;20.83;5.43;;;8.70;99.90;;;;;;5055458;28;20526;-66
2021/05/19 04:07:54;;;;;;;10.25;4.82;;;8.70;99.90;;;;;;5063200;28;20024;-66
2021/05/19 04:10:21;;;;;;;13.05;4.80;;;8.70;99.90;;;;;;5065397;28;20063;-66
2021/05/19 04:12:49;;;;;;;14.15;4.78;;;8.70;99.90;;;;;;5070402;28;20025;-66
2021/05/19 04:15:15;;;;;;;15.93;4.95;;;8.90;99.90;;;;;;5068074;28;20048;-66
2021/05/19 04:17:44;;;;;;;15.20;5.30;;;8.90;99.90;;;;;;5051525;28;20554;-66
2021/05/19 04:20:11;;;;;;;14.88;5.53;;;8.90;99.90;;;;;;5070525;28;20029;-67
2021/05/19 04:22:36;;;;;;;13.70;4.35;;;8.90;99.90;;;;;;5057402;28;20066;-66
2021/05/19 04:25:04;;;;;;;12.13;4.63;;;8.80;99.90;;;;;;5069854;28;20021;-66
2021/05/19 04:27:30;;;;;;;15.82;5.13;;;8.80;99.90;;;;;;5065593;28;20048;-66
2021/05/19 04:29:55;;;;;;;16.70;5.10;;;8.70;99.90;;;;;;5060584;28;20020;-66
2021/05/19 04:32:21;;;;;;;13.82;5.03;;;8.70;99.90;;;;;;5063977;28;20487;-67
2021/05/19 04:34:46;;;;;;;11.48;4.57;;;8.70;99.90;;;;;;5056133;28;20414;-66
2021/05/19 04:37:12;;;;;;;15.13;4.78;;;8.70;99.90;;;;;;5060065;28;20051;-66
2021/05/19 04:39:38;;;;;;;13.88;5.10;;;8.60;99.90;;;;;;5066381;28;20553;-66
2021/05/19 04:42:04;;;;;;;8.02;4.30;;;8.60;99.90;;;;;;5068515;28;20029;-67
2021/05/19 04:44:30;;;;;;;13.68;4.82;;;8.70;99.90;;;;;;5064584;28;20024;-66
2021/05/19 04:46:55;;;;;;;16.83;5.47;;;8.70;99.90;;;;;;5054222;28;20413;-66
2021/05/19 04:49:21;;;;;;;16.30;4.82;;;8.80;99.90;;;;;;5061913;28;20029;-66
2021/05/19 04:51:47;;;;;;;9.35;4.00;;;8.80;99.90;;;;;;5061825;28;20024;-66
2021/05/19 04:54:13;;;;;;;14.25;4.75;;;8.80;99.90;;;;;;5051977;28;20064;-66
2021/05/19 04:56:39;;;;;;;15.57;4.70;;;8.80;99.90;;;;;;5052433;28;20029;-66
2021/05/19 04:59:05;;;;;;;12.80;4.45;;;8.80;99.90;;;;;;5050539;28;20481;-66
2021/05/19 05:01:32;;;;;;;17.23;4.43;;;8.90;99.90;;;;;;5062419;28;20059;-67
2021/05/19 05:03:57;;;;;;;8.25;4.57;;;8.90;99.90;;;;;;5063256;28;20020;-66
2021/05/19 05:06:23;;;;;;;12.25;4.10;;;8.90;99.90;;;;;;5069057;28;20027;-67
2021/05/19 05:08:48;;;;;;;14.43;4.45;;;8.90;99.90;;;;;;5056546;28;20025;-66
2021/05/19 05:11:15;;;;;;;12.70;4.10;;;8.80;99.90;;;;;;5053049;28;20029;-66
2021/05/19 05:13:41;;;;;;;15.93;4.65;;;8.80;99.90;;;;;;5058211;28;20025;-66
2021/05/19 05:16:06;;;;;;;18.63;5.20;;;8.80;99.90;;;;;;5051467;28;20201;-66
2021/05/19 05:18:36;;;;;;;18.25;5.55;;;8.90;99.90;;;;;;5067475;28;20052;-67
2021/05/19 05:21:04;;;;;;;10.90;4.50;;;8.90;99.90;;;;;;5066755;28;20067;-66
2021/05/19 05:23:29;;;;;;;9.13;3.92;;;9.00;99.90;;;;;;5060944;28;20028;-67
2021/05/19 05:25:55;;;;;;;13.63;4.10;;;9.00;99.90;;;;;;5064290;28;20022;-66
2021/05/19 05:28:21;;;;;;;14.75;4.30;;;9.00;99.90;;;;;;5066179;28;20047;-66
2021/05/19 05:30:48;;;;;;;14.00;4.18;;;9.10;99.90;;;;;;5056492;28;20107;-66
2021/05/19 05:33:14;;;;;;;12.18;4.03;;;9.20;99.90;;;;;;5061510;28;20520;-66
2021/05/19 05:35:39;;;;;;;12.68;4.00;;;9.30;99.90;;;;;;5054634;28;20025;-67
2021/05/19 05:38:05;;;;;;;16.38;4.00;;;9.40;99.90;;;;;;5064523;28;20551;-67
2021/05/19 05:40:31;;;;;;;11.95;3.90;;;9.50;99.90;;;;;;5062160;28;20531;-66
2021/05/19 05:42:57;;;;;;;11.20;4.05;;;9.60;99.90;;;;;;5061006;28;20424;-66
2021/05/19 05:45:22;;;;;;;12.82;3.53;;;9.80;99.90;;;;;;5066208;28;20017;-67
2021/05/19 05:47:48;;;;;;;8.60;3.75;;;10.00;99.90;;;;;;5057976;28;20024;-67
2021/05/19 05:50:13;;;;;;;9.57;3.05;;;10.30;99.90;;;;;;5049600;28;20032;-67
2021/05/19 05:52:39;;;;;;;12.10;3.20;;;10.50;99.90;;;;;;5068399;28;20026;-67
2021/05/19 05:55:05;;;;;;;10.25;3.00;;;10.60;99.90;;;;;;5061851;28;20021;-66
2021/05/19 05:57:31;;;;;;;14.45;3.50;;;10.60;99.90;;;;;;5067452;28;20033;-67
2021/05/19 05:59:57;;;;;;;9.35;3.17;;;10.50;99.90;;;;;;5052009;28;20111;-67
2021/05/19 06:02:23;;;;;;;10.38;3.67;;;10.50;99.90;;;;;;5054476;28;20024;-67
2021/05/19 06:04:49;;;;;;;15.50;3.28;;;10.80;99.90;;;;;;5054911;28;20017;-66
2021/05/19 06:07:14;;;;;;;8.90;3.08;;;10.90;99.90;;;;;;5052759;28;20420;-66
2021/05/19 06:09:43;;;;;;;14.32;3.30;;;11.00;99.90;;;;;;5052640;28;20020;-67
2021/05/19 06:12:09;;;;;;;8.93;2.95;;;11.20;99.90;;;;;;5046134;28;20028;-67
2021/05/19 06:14:35;;;;;;;8.70;3.10;;;11.20;99.90;;;;;;5054933;28;20086;-67
2021/05/19 06:17:02;;;;;;;9.55;3.63;;;11.20;99.90;;;;;;5061901;28;20046;-67
2021/05/19 06:19:28;;;;;;;10.75;3.40;;;11.10;99.90;;;;;;5051023;28;20029;-67
2021/05/19 06:21:54;;;;;;;14.80;3.35;;;11.10;99.90;;;;;;5051863;28;20028;-66
2021/05/19 06:24:19;;;;;;;9.55;3.00;;;11.20;99.90;;;;;;5062068;28;20378;-67
2021/05/19 06:26:45;;;;;;;10.07;3.03;;;11.20;99.90;;;;;;5057362;28;20116;-66
2021/05/19 06:29:17;;;;;;;9.85;2.55;;;11.10;99.90;;;;;;5051725;28;20562;-66
2021/05/19 06:31:43;;;;;;;11.07;3.20;;;11.20;99.90;;;;;;5049898;28;20035;-66
2021/05/19 06:34:08;;;;;;;13.23;2.75;;;11.40;99.90;;;;;;5052716;28;20037;-67
2021/05/19 06:36:34;;;;;;;16.02;3.28;;;11.60;99.90;;;;;;5052856;28;20112;-67
2021/05/19 06:38:59;;;;;;;6.75;2.35;;;11.70;99.90;;;;;;5059123;28;20033;-67
2021/05/19 06:41:25;;;;;;;11.43;2.70;;;11.70;99.90;;;;;;5052188;28;20074;-67
2021/05/19 06:43:53;;;;;;;13.20;3.30;;;11.50;99.90;;;;;;5049647;28;20111;-68
2021/05/19 06:46:19;;;;;;;10.60;2.53;;;11.50;99.90;;;;;;5052541;28;20052;-67
2021/05/19 06:48:44;;;;;;;10.38;2.70;;;11.70;99.90;;;;;;5052808;28;20094;-67
2021/05/19 06:51:10;;;;;;;10.05;2.72;;;12.00;99.90;;;;;;5062934;28;20047;-67
2021/05/19 06:53:35;;;;;;;10.55;2.72;;;12.10;99.90;;;;;;5057892;28;20106;-68
2021/05/19 06:56:01;;;;;;;11.23;3.38;;;12.10;99.90;;;;;;5054985;28;20032;-67
2021/05/19 06:58:27;;;;;;;12.10;3.20;;;12.10;99.90;;;;;;5049728;28;20060;-67
2021/05/19 07:00:53;;;;;;;12.77;2.95;;;11.90;99.90;;;;;;5057710;28;20370;-67
2021/05/19 07:03:19;;;;;;;14.48;3.55;;;11.70;99.90;;;;;;5053446;28;20139;-67
2021/05/19 07:05:45;;;;;;;7.03;2.42;;;11.50;99.90;;;;;;5052289;28;20037;-67
2021/05/19 07:08:10;;;;;;;11.30;3.00;;;11.40;99.90;;;;;;5056084;28;20035;-67
2021/05/19 07:10:36;;;;;;;10.23;2.70;;;11.50;99.90;;;;;;5053789;28;20063;-67
2021/05/19 07:13:03;;;;;;;13.20;3.55;;;11.70;99.90;;;;;;5058233;28;20547;-67
2021/05/19 07:15:32;;;;;;;9.85;3.47;;;11.70;99.90;;;;;;5054809;28;20028;-68
2021/05/19 07:18:08;;;;;;;10.25;2.60;;;11.80;99.90;;;;;;5052415;28;20029;-68
2021/05/19 07:20:34;;;;;;;9.55;2.58;;;11.90;99.90;;;;;;5056975;28;20148;-68
2021/05/19 07:23:00;;;;;;;9.95;3.17;;;12.00;99.90;;;;;;5058599;28;20486;-68
2021/05/19 07:25:26;;;;;;;13.30;3.05;;;12.50;99.90;;;;;;5063863;28;20039;-68
2021/05/19 07:27:51;;;;;;;10.18;2.67;;;13.30;99.90;;;;;;5053203;28;20041;-68
2021/05/19 07:30:18;;;;;;;7.97;2.45;;;13.60;99.90;;;;;;5057306;28;20070;-65
2021/05/19 07:32:44;;;;;;;8.93;2.45;;;13.00;99.90;;;;;;5055063;28;20078;-65
2021/05/19 07:35:10;;;;;;;12.70;2.63;;;12.90;99.90;;;;;;5058387;28;20049;-65
2021/05/19 07:37:36;;;;;;;5.70;1.83;;;12.80;99.90;;;;;;5050835;28;20029;-65
2021/05/19 07:40:03;;;;;;;9.25;2.00;;;12.80;99.90;;;;;;5055153;28;20029;-66
2021/05/19 07:42:28;;;;;;;10.18;2.05;;;12.50;99.90;;;;;;5050071;28;20105;-67
2021/05/19 07:44:54;;;;;;;8.38;2.55;;;12.30;99.90;;;;;;5056434;28;20067;-66
2021/05/19 07:47:20;;;;;;;7.85;1.90;;;12.20;99.90;;;;;;5053794;28;20106;-66
2021/05/19 07:49:48;;;;;;;8.70;2.20;;;12.20;99.90;;;;;;5056502;28;20811;-66
2021/05/19 07:52:14;;;;;;;8.63;2.85;;;12.10;99.90;;;;;;5059358;28;20047;-64
2021/05/19 07:54:40;;;;;;;5.65;2.13;;;12.20;99.90;;;;;;5056888;28;20032;-66
2021/05/19 07:57:14;;;;;;;8.05;1.90;;;12.40;99.90;;;;;;5049159;28;20056;-65
2021/05/19 07:59:40;;;;;;;7.78;2.30;;;12.30;99.90;;;;;;5057834;28;20024;-66
2021/05/19 08:02:11;;;;;;;9.55;2.05;;;12.20;99.90;;;;;;5051179;28;20555;-66
2021/05/19 08:04:37;;;;;;;7.28;2.15;;;12.30;99.90;;;;;;5047877;28;20033;-66
2021/05/19 08:07:05;;;;;;;8.00;2.20;;;12.70;99.90;;;;;;5054947;28;20021;-67
2021/05/19 08:09:31;;;;;;;10.55;1.95;;;13.80;99.90;;;;;;5053066;28;20048;-67
2021/05/19 08:11:57;;;;;;;5.20;1.70;;;14.80;99.90;;;;;;5060556;28;20063;-66
2021/05/19 08:14:26;;;;;;;4.55;2.00;;;15.00;99.90;;;;;;5058023;28;20037;-66
2021/05/19 08:16:52;;;;;;;6.18;2.05;;;14.80;99.90;;;;;;5054895;28;20063;-66
2021/05/19 08:19:18;;;;;;;6.80;1.88;;;14.80;99.90;;;;;;5062829;28;20028;-66
2021/05/19 08:21:43;;;;;;;7.40;1.88;;;15.10;99.90;;;;;;5063167;28;20047;-66
2021/05/19 08:24:09;;;;;;;8.10;1.58;;;15.00;99.90;;;;;;5065618;28;20150;-66
2021/05/19 08:26:35;;;;;;;6.85;1.38;;;14.80;99.90;;;;;;5057305;28;20029;-66
2021/05/19 08:29:02;;;;;;;5.82;1.10;;;14.70;99.90;;;;;;5055814;28;20379;-68
2021/05/19 08:31:27;;;;;;;7.15;1.30;;;14.50;99.90;;;;;;5055196;28;20477;-68
2021/05/19 08:33:56;;;;;;;5.68;1.40;;;14.10;99.90;;;;;;5058624;28;20029;-66
2021/05/19 08:36:22;;;;;;;5.57;1.30;;;13.90;99.90;;;;;;5059386;28;20391;-66
2021/05/19 08:38:47;;;;;;;3.00;1.50;;;14.10;99.90;;;;;;5060060;28;20029;-67
2021/05/19 08:41:13;;;;;;;5.15;1.65;;;14.10;99.90;;;;;;5046149;28;20465;-67
2021/05/19 08:43:39;;;;;;;5.70;1.50;;;14.20;99.90;;;;;;5050217;28;20027;-67
2021/05/19 08:46:09;;;;;;;5.50;1.98;;;14.20;99.90;;;;;;5052901;28;20032;-69
2021/05/19 08:48:35;;;;;;;5.32;1.40;;;15.00;99.90;;;;;;5057987;28;20063;-68
2021/05/19 08:51:01;;;;;;;6.40;1.85;;;15.20;99.90;;;;;;5058266;28;20500;-69
2021/05/19 08:53:27;;;;;;;2.35;1.17;;;14.90;99.90;;;;;;5057016;28;20033;-68
2021/05/19 08:55:54;;;;;;;3.45;1.15;;;14.50;99.90;;;;;;5057353;28;20127;-66
2021/05/19 08:58:20;;;;;;;6.97;2.13;;;14.00;99.90;;;;;;5052219;28;20064;-67
2021/05/19 09:00:46;;;;;;;5.72;2.53;;;13.80;99.90;;;;;;5053810;28;20468;-68
2021/05/19 09:03:18;;;;;;;6.22;3.05;;;13.90;99.90;;;;;;5062841;28;20028;-66
2021/05/19 09:05:49;;;;;;;4.60;3.38;;;13.70;99.90;;;;;;5051966;28;20046;-67
2021/05/19 09:08:19;;;;;;;15.90;3.22;;;13.40;99.90;;;;;;5055137;28;20101;-68
2021/05/19 09:11:03;;;;;;;4.95;2.38;;;13.30;99.90;;;;;;5056574;28;20028;-66
2021/05/19 09:13:35;;;;;;;3.08;1.67;;;13.40;99.90;;;;;;5057829;28;20028;-67
2021/05/19 09:16:02;;;;;;;2.88;1.42;;;13.40;99.90;;;;;;5059953;28;20028;-65
2021/05/19 09:18:50;;;;;;;3.95;1.60;;;13.40;99.90;;;;;;5054524;28;20039;-66
2021/05/19 09:21:33;;;;;;;4.25;1.15;;;13.30;99.90;;;;;;5049530;28;20120;-66
2021/05/19 09:24:03;;;;;;;1.83;1.00;;;13.30;99.90;;;;;;5052804;28;20312;-67
2021/05/19 09:26:28;;;;;;;5.15;1.05;;;13.20;99.90;;;;;;5055044;28;20357;-66
2021/05/19 09:29:14;;;;;;;2.38;0.95;;;13.20;99.90;;;;;;5059967;28;20028;-67
2021/05/19 09:31:56;;;;;;;1.30;0.73;;;12.90;99.90;;;;;;5057545;28;20033;-68
2021/05/19 09:34:30;;;;;;;2.22;0.70;;;12.80;99.90;;;;;;5058947;28;20027;-67
2021/05/19 09:37:11;;;;;;;2.13;0.90;;;12.70;99.90;;;;;;5059148;28;20036;-67
2021/05/19 09:39:59;;;;;;;3.80;1.00;;;12.70;99.90;;;;;;5066261;28;20085;-67
2021/05/19 09:42:46;;;;;;;6.00;1.38;;;12.80;99.90;;;;;;5055275;28;20509;-67
2021/05/19 09:45:20;;;;;;;2.45;0.80;;;12.60;99.90;;;;;;5061281;28;20028;-67
2021/05/19 09:47:47;;;;;;;1.52;0.85;;;12.70;99.90;;;;;;5052515;28;20118;-66
2021/05/19 09:50:18;;;;;;;1.80;0.60;;;12.70;99.90;;;;;;5058756;28;20686;-67
2021/05/19 09:53:04;;;;;;;1.05;0.80;;;12.90;99.90;;;;;;5059000;28;20031;-68
2021/05/19 09:55:31;;;;;;;2.08;1.13;;;13.00;99.90;;;;;;5060402;28;20024;-68
2021/05/19 09:57:57;;;;;;;7.00;1.10;;;13.30;99.90;;;;;;5060405;28;20045;-68
2021/05/19 10:00:27;;;;;;;2.42;0.98;;;13.80;99.90;;;;;;5058664;28;20048;-68
2021/05/19 10:02:54;;;;;;;2.75;0.73;;;14.00;99.90;;;;;;5055870;28;20423;-68
2021/05/19 10:05:24;;;;;;;5.22;1.10;;;14.00;99.90;;;;;;5054737;28;20013;-68
2021/05/19 10:07:53;;;;;;;3.70;1.08;;;14.00;99.90;;;;;;5052895;28;20447;-68
2021/05/19 10:10:19;;;;;;;3.58;0.93;;;14.20;99.90;;;;;;5061534;28;20039;-67
2021/05/19 10:12:46;;;;;;;2.38;1.02;;;14.40;99.90;;;;;;5056758;28;20029;-68
2021/05/19 10:15:17;;;;;;;4.03;1.35;;;14.60;99.90;;;;;;5063746;28;20040;-68
2021/05/19 10:17:47;;;;;;;2.20;1.30;;;14.60;99.90;;;;;;5055663;28;20655;-68
2021/05/19 10:20:15;;;;;;;2.33;1.40;;;15.10;99.90;;;;;;5054021;28;20034;-69
2021/05/19 10:22:47;;;;;;;3.50;1.45;;;15.50;99.90;;;;;;5055940;28;20111;-68
2021/05/19 10:25:38;;;;;;;2.67;1.00;;;15.70;99.90;;;;;;5056078;28;20048;-68
2021/05/19 10:28:06;;;;;;;1.65;0.98;;;16.40;99.90;;;;;;5053603;28;20061;-68
2021/05/19 10:30:40;;;;;;;2.50;1.20;;;15.90;99.90;;;;;;5065532;28;20033;-69
2021/05/19 10:33:37;;;;;;;2.47;1.20;;;15.70;99.90;;;;;;5059518;28;20020;-69
2021/05/19 10:36:24;;;;;;;2.05;1.30;;;15.90;99.90;;;;;;5050372;28;20433;-69
2021/05/19 10:39:08;;;;;;;3.20;1.30;;;15.60;99.90;;;;;;5060255;28;20373;-69
2021/05/19 10:41:45;;;;;;;1.60;1.10;;;15.50;99.90;;;;;;5060219;28;20418;-69
2021/05/19 10:44:12;;;;;;;3.10;1.05;;;15.70;99.90;;;;;;5059286;28;20033;-69
2021/05/19 10:46:48;;;;;;;4.65;0.90;;;16.20;99.90;;;;;;5050294;28;20029;-70
2021/05/19 10:49:17;;;;;;;0.90;0.80;;;17.50;99.90;;;;;;5058267;28;20344;-69
2021/05/19 10:52:01;;;;;;;1.65;0.80;;;17.80;99.90;;;;;;5063491;28;20028;-69
2021/05/19 10:57:33;;;;;;;2.30;0.70;;;17.20;99.90;;;;;;5062048;28;20051;-69
2021/05/19 11:03:00;;;;;;;1.27;0.75;;;15.90;99.90;;;;;;5068669;28;20029;-69
2021/05/19 11:05:37;;;;;;;3.53;1.00;;;15.10;99.90;;;;;;5069663;28;20025;-69
2021/05/19 11:08:10;;;;;;;2.22;0.90;;;14.90;99.90;;;;;;5059495;28;20555;-69
2021/05/19 11:10:38;;;;;;;4.75;0.80;;;15.00;99.90;;;;;;5066016;28;20039;-69
2021/05/19 11:13:04;;;;;;;3.58;0.70;;;15.40;99.90;;;;;;5058504;28;20107;-69
2021/05/19 11:20:53;;;;;;;1.10;0.60;;;15.20;99.90;;;;;;5065674;28;20613;-69
2021/05/19 11:23:19;;;;;;;3.03;0.70;;;15.10;99.90;;;;;;5060358;28;20021;-69
2021/05/19 11:25:45;;;;;;;3.25;0.60;;;15.60;99.90;;;;;;5052269;28;20082;-69
2021/05/19 11:28:12;;;;;;;2.60;0.68;;;16.00;99.90;;;;;;5065435;28;20048;-69
2021/05/19 11:30:37;;;;;;;2.35;0.85;;;16.20;99.90;;;;;;5062581;28;20028;-69
2021/05/19 11:33:04;;;;;;;1.50;0.77;;;15.90;99.90;;;;;;5063915;28;20079;-69
2021/05/19 11:35:30;;;;;;;1.10;0.52;;;16.40;99.90;;;;;;5062554;28;20047;-69
2021/05/19 11:38:04;;;;;;;3.90;0.95;;;17.60;99.90;;;;;;5064523;28;20032;-69
2021/05/19 11:40:48;;;;;;;3.60;0.50;;;18.90;99.90;;;;;;5056163;28;20029;-69
2021/05/19 11:43:16;;;;;;;0.63;0.43;;;19.50;99.90;;;;;;5064835;28;20367;-69
2021/05/19 11:45:43;;;;;;;1.35;0.75;;;19.80;99.90;;;;;;5071554;28;20512;-69
2021/05/19 11:48:28;;;;;;;1.30;0.80;;;19.60;97.40;;;;;;5064777;28;20390;-69
2021/05/19 11:50:55;;;;;;;1.73;0.82;;;18.60;99.90;;;;;;5055899;28;20473;-69
2021/05/19 11:53:22;;;;;;;1.38;0.90;;;19.40;99.60;;;;;;5059691;28;20024;-69
2021/05/19 11:55:52;;;;;;;1.33;0.90;;;19.60;98.30;;;;;;5059975;28;20382;-69
2021/05/19 11:58:25;;;;;;;2.35;1.05;;;19.50;97.90;;;;;;5059444;28;20032;-69
2021/05/19 12:00:59;;;;;;;3.10;1.10;;;19.40;99.90;;;;;;5058061;28;20450;-69
2021/05/19 12:03:26;;;;;;;3.13;1.00;;;19.70;99.00;;;;;;5064225;28;20028;-67
2021/05/19 12:05:54;;;;;;;2.53;0.93;;;21.30;92.70;;;;;;5061999;28;20428;-69
2021/05/19 12:08:31;;;;;;;1.30;0.90;;;20.30;92.30;;;;;;5063676;28;20040;-69
2021/05/19 12:11:08;;;;;;;2.05;1.10;;;20.50;93.50;;;;;;5068867;28;20021;-68
2021/05/19 12:13:38;;;;;;;2.22;0.90;;;20.00;95.10;;;;;;5059930;28;20032;-68
2021/05/19 12:16:09;;;;;;;1.75;1.10;;;19.50;98.00;;;;;;5057746;28;20039;-68
2021/05/19 12:18:35;;;;;;;2.15;0.90;;;19.30;98.80;;;;;;5057497;28;20028;-67
2021/05/19 12:21:11;;;;;;;2.03;1.15;;;18.40;99.90;;;;;;5054824;28;20047;-67
2021/05/19 12:23:40;;;;;;;1.48;1.30;;;18.10;99.90;;;;;;5063421;28;20031;-68
2021/05/19 12:26:10;;;;;;;4.57;1.60;;;17.90;99.90;;;;;;5066078;28;20024;-69
2021/05/19 12:28:36;;;;;;;2.67;1.30;;;17.50;99.90;;;;;;5051723;28;20242;-68
2021/05/19 12:31:01;;;;;;;2.72;1.52;;;17.20;99.90;;;;;;5060206;28;20481;-68
2021/05/19 12:33:42;;;;;;;2.92;1.50;;;16.80;99.90;;;;;;5058771;28;20127;-68
2021/05/19 12:36:28;;;;;;;2.67;1.73;;;17.10;99.90;;;;;;5052585;28;20496;-67
2021/05/19 12:38:58;;;;;;;1.80;1.30;;;17.20;99.90;;;;;;5061018;28;20045;-68
2021/05/19 12:41:42;;;;;;;1.83;1.30;;;17.20;99.90;;;;;;5057740;28;20024;-68
2021/05/19 12:44:13;;;;;;;3.60;1.83;;;17.50;99.90;;;;;;5054387;28;20033;-68
2021/05/19 12:46:39;;;;;;;4.80;1.85;;;17.00;99.90;;;;;;5063304;28;20029;-68
2021/05/19 12:49:12;;;;;;;2.60;1.60;;;16.70;99.90;;;;;;5070748;28;20029;-68
2021/05/19 12:51:53;;;;;;;2.03;1.50;;;16.80;99.90;;;;;;5056320;28;20112;-69
2021/05/19 12:54:28;;;;;;;1.83;1.50;;;16.60;99.90;;;;;;5058302;28;20068;-69
2021/05/19 12:57:09;;;;;;;1.73;1.33;;;16.90;99.90;;;;;;5057656;28;20024;-67
2021/05/19 12:59:55;;;;;;;2.00;1.23;;;18.10;99.90;;;;;;5059683;28;20055;-69
2021/05/19 13:02:24;;;;;;;3.03;1.58;;;18.40;99.90;;;;;;5059744;28;20028;-69
2021/05/19 13:04:52;;;;;;;1.38;1.27;;;17.90;99.90;;;;;;5059623;28;20480;-69